sensor_id;sensor_type;location;lat;lon;timestamp;pressure;altitude;pressure_sealevel;temperature
69785;BMP280;14177;51.520;6.764;2022-07-29T00:01:04;101321.44;;;20.60
69785;BMP280;14177;51.520;6.764;2022-07-29T00:03:31;101318.94;;;20.58
69785;BMP280;14177;51.520;6.764;2022-07-29T00:05:59;101318.06;;;20.58
69785;BMP280;14177;51.520;6.764;2022-07-29T00:08:26;101318.25;;;20.55
69785;BMP280;14177;51.520;6.764;2022-07-29T00:10:53;101318.25;;;20.55
69785;BMP280;14177;51.520;6.764;2022-07-29T00:13:20;101307.91;;;20.52
69785;BMP280;14177;51.520;6.764;2022-07-29T00:15:59;101312.41;;;20.50
69785;BMP280;14177;51.520;6.764;2022-07-29T00:18:31;101310.72;;;20.49
69785;BMP280;14177;51.520;6.764;2022-07-29T00:20:59;101309.97;;;20.47
69785;BMP280;14177;51.520;6.764;2022-07-29T00:23:26;101308.09;;;20.49
69785;BMP280;14177;51.520;6.764;2022-07-29T00:25:53;101297.53;;;20.49
69785;BMP280;14177;51.520;6.764;2022-07-29T00:28:20;101297.72;;;20.46
69785;BMP280;14177;51.520;6.764;2022-07-29T00:30:47;101290.75;;;20.45
69785;BMP280;14177;51.520;6.764;2022-07-29T00:33:14;101283.78;;;20.44
69785;BMP280;14177;51.520;6.764;2022-07-29T00:35:41;101283.78;;;20.44
69785;BMP280;14177;51.520;6.764;2022-07-29T00:38:16;101280.38;;;20.42
69785;BMP280;14177;51.520;6.764;2022-07-29T00:40:44;101276.16;;;20.39
69785;BMP280;14177;51.520;6.764;2022-07-29T00:43:13;101268.38;;;20.38
69785;BMP280;14177;51.520;6.764;2022-07-29T00:45:42;101259.69;;;20.36
69785;BMP280;14177;51.520;6.764;2022-07-29T00:48:09;101259.69;;;20.36
69785;BMP280;14177;51.520;6.764;2022-07-29T00:50:37;101251.88;;;20.34
69785;BMP280;14177;51.520;6.764;2022-07-29T00:53:08;101249.22;;;20.34
69785;BMP280;14177;51.520;6.764;2022-07-29T00:55:38;101247.44;;;20.35
69785;BMP280;14177;51.520;6.764;2022-07-29T00:58:06;101247.53;;;20.33
69785;BMP280;14177;51.520;6.764;2022-07-29T01:00:33;101239.81;;;20.30
69785;BMP280;14177;51.520;6.764;2022-07-29T01:03:00;101235.47;;;20.29
69785;BMP280;14177;51.520;6.764;2022-07-29T01:05:28;101232.22;;;20.26
69785;BMP280;14177;51.520;6.764;2022-07-29T01:08:17;101235.13;;;20.21
69785;BMP280;14177;51.520;6.764;2022-07-29T01:10:45;101233.63;;;20.17
69785;BMP280;14177;51.520;6.764;2022-07-29T01:13:15;101236.38;;;20.16
69785;BMP280;14177;51.520;6.764;2022-07-29T01:15:49;101236.56;;;20.13
69785;BMP280;14177;51.520;6.764;2022-07-29T01:18:39;101233.06;;;20.12
69785;BMP280;14177;51.520;6.764;2022-07-29T01:21:55;101234.94;;;20.10
69785;BMP280;14177;51.520;6.764;2022-07-29T01:24:59;101230.72;;;20.08
69785;BMP280;14177;51.520;6.764;2022-07-29T01:30:41;101234.31;;;20.07
69785;BMP280;14177;51.520;6.764;2022-07-29T01:33:14;101235.44;;;20.03
69785;BMP280;14177;51.520;6.764;2022-07-29T01:36:19;101233.75;;;20.02
69785;BMP280;14177;51.520;6.764;2022-07-29T01:39:06;101235.44;;;20.03
69785;BMP280;14177;51.520;6.764;2022-07-29T01:41:38;101228.47;;;20.02
69785;BMP280;14177;51.520;6.764;2022-07-29T01:44:18;101230.16;;;20.03
69785;BMP280;14177;51.520;6.764;2022-07-29T01:46:54;101227.53;;;20.03
69785;BMP280;14177;51.520;6.764;2022-07-29T01:49:35;101226.03;;;19.99
69785;BMP280;14177;51.520;6.764;2022-07-29T01:52:11;101221.66;;;19.98
69785;BMP280;14177;51.520;6.764;2022-07-29T01:54:57;101224.47;;;19.95
69785;BMP280;14177;51.520;6.764;2022-07-29T01:57:29;101212.44;;;19.91
69785;BMP280;14177;51.520;6.764;2022-07-29T01:59:59;101212.63;;;19.88
69785;BMP280;14177;51.520;6.764;2022-07-29T02:02:42;101209.91;;;19.89
69785;BMP280;14177;51.520;6.764;2022-07-29T02:05:13;101219.69;;;19.87
69785;BMP280;14177;51.520;6.764;2022-07-29T02:07:43;101218.00;;;19.86
69785;BMP280;14177;51.520;6.764;2022-07-29T02:10:13;101221.47;;;19.87
69785;BMP280;14177;51.520;6.764;2022-07-29T02:12:43;101219.78;;;19.86
69785;BMP280;14177;51.520;6.764;2022-07-29T02:15:17;101218.00;;;19.86
69785;BMP280;14177;51.520;6.764;2022-07-29T02:18:01;101216.38;;;19.84
69785;BMP280;14177;51.520;6.764;2022-07-29T02:20:29;101213.00;;;19.82
69785;BMP280;14177;51.520;6.764;2022-07-29T02:22:59;101208.84;;;19.78
69785;BMP280;14177;51.520;6.764;2022-07-29T02:25:27;101216.88;;;19.76
69785;BMP280;14177;51.520;6.764;2022-07-29T02:28:06;101228.44;;;19.74
69785;BMP280;14177;51.520;6.764;2022-07-29T02:30:39;101233.91;;;19.71
69785;BMP280;14177;51.520;6.764;2022-07-29T02:33:09;101235.59;;;19.72
69785;BMP280;14177;51.520;6.764;2022-07-29T02:35:41;101242.94;;;19.67
69785;BMP280;14177;51.520;6.764;2022-07-29T02:38:14;101268.00;;;19.60
69785;BMP280;14177;51.520;6.764;2022-07-29T02:41:08;101286.97;;;19.51
69785;BMP280;14177;51.520;6.764;2022-07-29T02:43:41;101284.13;;;19.40
69785;BMP280;14177;51.520;6.764;2022-07-29T02:46:18;101269.63;;;19.33
69785;BMP280;14177;51.520;6.764;2022-07-29T02:49:08;101267.94;;;19.32
69785;BMP280;14177;51.520;6.764;2022-07-29T02:51:44;101273.19;;;19.32
69785;BMP280;14177;51.520;6.764;2022-07-29T02:54:29;101294.28;;;19.32
69785;BMP280;14177;51.520;6.764;2022-07-29T02:57:00;101299.72;;;19.29
69785;BMP280;14177;51.520;6.764;2022-07-29T02:59:32;101287.50;;;19.28
69785;BMP280;14177;51.520;6.764;2022-07-29T03:02:02;101282.41;;;19.25
69785;BMP280;14177;51.520;6.764;2022-07-29T03:04:33;101280.28;;;19.16
69785;BMP280;14177;51.520;6.764;2022-07-29T03:07:01;101287.44;;;19.14
69785;BMP280;14177;51.520;6.764;2022-07-29T03:09:30;101284.28;;;19.08
69785;BMP280;14177;51.520;6.764;2022-07-29T03:11:57;101286.25;;;19.04
69785;BMP280;14177;51.520;6.764;2022-07-29T03:14:25;101283.78;;;19.01
69785;BMP280;14177;51.520;6.764;2022-07-29T03:16:53;101274.47;;;18.96
69785;BMP280;14177;51.520;6.764;2022-07-29T03:19:20;101274.53;;;18.94
69785;BMP280;14177;51.520;6.764;2022-07-29T03:21:48;101272.09;;;18.91
69785;BMP280;14177;51.520;6.764;2022-07-29T03:24:34;101284.84;;;18.83
69785;BMP280;14177;51.520;6.764;2022-07-29T03:27:03;101276.38;;;18.78
69785;BMP280;14177;51.520;6.764;2022-07-29T03:29:31;101272.97;;;18.76
69785;BMP280;14177;51.520;6.764;2022-07-29T03:32:04;101272.97;;;18.76
69785;BMP280;14177;51.520;6.764;2022-07-29T03:34:36;101289.88;;;18.72
69785;BMP280;14177;51.520;6.764;2022-07-29T03:37:05;101298.09;;;18.66
69785;BMP280;14177;51.520;6.764;2022-07-29T03:39:38;101289.63;;;18.61
69785;BMP280;14177;51.520;6.764;2022-07-29T03:42:10;101282.16;;;18.54
69785;BMP280;14177;51.520;6.764;2022-07-29T03:44:41;101282.25;;;18.52
69785;BMP280;14177;51.520;6.764;2022-07-29T03:47:10;101287.78;;;18.48
69785;BMP280;14177;51.520;6.764;2022-07-29T03:49:39;101285.22;;;18.46
69785;BMP280;14177;51.520;6.764;2022-07-29T03:52:07;101289.63;;;18.46
69785;BMP280;14177;51.520;6.764;2022-07-29T03:54:35;101291.34;;;18.47
69785;BMP280;14177;51.520;6.764;2022-07-29T03:57:03;101306.25;;;18.46
69785;BMP280;14177;51.520;6.764;2022-07-29T03:59:33;101316.00;;;18.44
69785;BMP280;14177;51.520;6.764;2022-07-29T04:02:04;101338.16;;;18.40
69785;BMP280;14177;51.520;6.764;2022-07-29T04:04:34;101356.88;;;18.34
69785;BMP280;14177;51.520;6.764;2022-07-29T04:07:02;101356.22;;;18.31
69785;BMP280;14177;51.520;6.764;2022-07-29T04:09:30;101338.75;;;18.30
69785;BMP280;14177;51.520;6.764;2022-07-29T04:11:57;101335.00;;;18.34
69785;BMP280;14177;51.520;6.764;2022-07-29T04:14:32;101332.13;;;18.38
69785;BMP280;14177;51.520;6.764;2022-07-29T04:17:01;101324.81;;;18.43
69785;BMP280;14177;51.520;6.764;2022-07-29T04:19:28;101336.97;;;18.46
69785;BMP280;14177;51.520;6.764;2022-07-29T04:21:56;101338.69;;;18.47
69785;BMP280;14177;51.520;6.764;2022-07-29T04:24:23;101356.22;;;18.46
69785;BMP280;14177;51.520;6.764;2022-07-29T04:26:52;101341.03;;;18.36
69785;BMP280;14177;51.520;6.764;2022-07-29T04:29:19;101318.78;;;18.26
69785;BMP280;14177;51.520;6.764;2022-07-29T04:31:46;101307.03;;;18.16
69785;BMP280;14177;51.520;6.764;2022-07-29T04:34:14;101308.38;;;18.08
69785;BMP280;14177;51.520;6.764;2022-07-29T04:36:42;101299.13;;;18.01
69785;BMP280;14177;51.520;6.764;2022-07-29T04:39:09;101294.09;;;17.96
69785;BMP280;14177;51.520;6.764;2022-07-29T04:41:37;101299.00;;;17.87
69785;BMP280;14177;51.520;6.764;2022-07-29T04:44:04;101302.81;;;17.81
69785;BMP280;14177;51.520;6.764;2022-07-29T04:46:33;101307.31;;;17.79
69785;BMP280;14177;51.520;6.764;2022-07-29T04:49:01;101296.25;;;17.73
69785;BMP280;14177;51.520;6.764;2022-07-29T04:51:28;101290.47;;;17.66
69785;BMP280;14177;51.520;6.764;2022-07-29T04:53:55;101283.66;;;17.62
69785;BMP280;14177;51.520;6.764;2022-07-29T04:56:22;101281.25;;;17.58
69785;BMP280;14177;51.520;6.764;2022-07-29T04:58:51;101276.47;;;17.49
69785;BMP280;14177;51.520;6.764;2022-07-29T05:01:19;101270.66;;;17.44
69785;BMP280;14177;51.520;6.764;2022-07-29T05:03:46;101277.03;;;17.38
69785;BMP280;14177;51.520;6.764;2022-07-29T05:06:13;101271.28;;;17.30
69785;BMP280;14177;51.520;6.764;2022-07-29T05:08:41;101268.91;;;17.26
69785;BMP280;14177;51.520;6.764;2022-07-29T05:11:08;101277.78;;;17.23
69785;BMP280;14177;51.520;6.764;2022-07-29T05:13:39;101288.28;;;17.23
69785;BMP280;14177;51.520;6.764;2022-07-29T05:16:13;101299.97;;;17.18
69785;BMP280;14177;51.520;6.764;2022-07-29T05:18:41;101295.63;;;17.17
69785;BMP280;14177;51.520;6.764;2022-07-29T05:21:09;101300.88;;;17.17
69785;BMP280;14177;51.520;6.764;2022-07-29T05:23:36;101316.34;;;17.23
69785;BMP280;14177;51.520;6.764;2022-07-29T05:26:03;101314.47;;;17.25
69785;BMP280;14177;51.520;6.764;2022-07-29T05:28:34;101309.22;;;17.25
69785;BMP280;14177;51.520;6.764;2022-07-29T05:31:02;101318.03;;;17.24
69785;BMP280;14177;51.520;6.764;2022-07-29T05:33:29;101310.22;;;17.22
69785;BMP280;14177;51.520;6.764;2022-07-29T05:36:04;101304.19;;;17.20
69785;BMP280;14177;51.520;6.764;2022-07-29T05:38:34;101297.31;;;17.18
69785;BMP280;14177;51.520;6.764;2022-07-29T05:41:04;101303.81;;;17.11
69785;BMP280;14177;51.520;6.764;2022-07-29T05:43:32;101296.22;;;17.05
69785;BMP280;14177;51.520;6.764;2022-07-29T05:45:59;101297.25;;;17.03
69785;BMP280;14177;51.520;6.764;2022-07-29T05:48:29;101299.25;;;16.98
69785;BMP280;14177;51.520;6.764;2022-07-29T05:50:56;101305.63;;;16.92
69785;BMP280;14177;51.520;6.764;2022-07-29T05:53:23;101296.81;;;16.93
69785;BMP280;14177;51.520;6.764;2022-07-29T05:55:50;101305.13;;;16.84
69785;BMP280;14177;51.520;6.764;2022-07-29T05:58:18;101304.50;;;16.79
69785;BMP280;14177;51.520;6.764;2022-07-29T06:00:46;101305.13;;;16.84
69785;BMP280;14177;51.520;6.764;2022-07-29T06:03:13;101306.78;;;16.87
69785;BMP280;14177;51.520;6.764;2022-07-29T06:05:41;101306.53;;;16.91
69785;BMP280;14177;51.520;6.764;2022-07-29T06:08:08;101300.09;;;16.98
69785;BMP280;14177;51.520;6.764;2022-07-29T06:10:35;101311.97;;;17.05
69785;BMP280;14177;51.520;6.764;2022-07-29T06:13:03;101307.34;;;17.10
69785;BMP280;14177;51.520;6.764;2022-07-29T06:15:31;101304.34;;;17.17
69785;BMP280;14177;51.520;6.764;2022-07-29T06:17:58;101302.44;;;17.21
69785;BMP280;14177;51.520;6.764;2022-07-29T06:20:30;101297.19;;;17.21
69785;BMP280;14177;51.520;6.764;2022-07-29T06:22:59;101292.69;;;17.23
69785;BMP280;14177;51.520;6.764;2022-07-29T06:25:27;101289.38;;;17.19
69785;BMP280;14177;51.520;6.764;2022-07-29T06:27:57;101291.06;;;17.20
69785;BMP280;14177;51.520;6.764;2022-07-29T06:30:25;101290.06;;;17.23
69785;BMP280;14177;51.520;6.764;2022-07-29T06:32:53;101286.38;;;17.27
69785;BMP280;14177;51.520;6.764;2022-07-29T06:35:21;101286.00;;;17.34
69785;BMP280;14177;51.520;6.764;2022-07-29T06:38:20;101286.47;;;17.42
69785;BMP280;14177;51.520;6.764;2022-07-29T06:41:15;101277.50;;;17.46
69785;BMP280;14177;51.520;6.764;2022-07-29T06:43:44;101287.59;;;17.54
69785;BMP280;14177;51.520;6.764;2022-07-29T06:46:21;101290.06;;;17.57
69785;BMP280;14177;51.520;6.764;2022-07-29T06:48:51;101286.38;;;17.61
69785;BMP280;14177;51.520;6.764;2022-07-29T06:51:20;101290.78;;;17.60
69785;BMP280;14177;51.520;6.764;2022-07-29T06:53:51;101304.91;;;17.58
69785;BMP280;14177;51.520;6.764;2022-07-29T06:56:33;101309.41;;;17.56
69785;BMP280;14177;51.520;6.764;2022-07-29T06:59:08;101313.09;;;17.52
69785;BMP280;14177;51.520;6.764;2022-07-29T07:01:42;101323.19;;;17.44
69785;BMP280;14177;51.520;6.764;2022-07-29T07:04:10;101338.31;;;17.39
69785;BMP280;14177;51.520;6.764;2022-07-29T07:06:38;101345.41;;;17.37
69785;BMP280;14177;51.520;6.764;2022-07-29T07:09:05;101358.41;;;17.40
69785;BMP280;14177;51.520;6.764;2022-07-29T07:11:32;101360.00;;;17.42
69785;BMP280;14177;51.520;6.764;2022-07-29T07:13:59;101380.09;;;17.43
69785;BMP280;14177;51.520;6.764;2022-07-29T07:16:30;101382.03;;;17.40
69785;BMP280;14177;51.520;6.764;2022-07-29T07:18:58;101395.22;;;17.38
69785;BMP280;14177;51.520;6.764;2022-07-29T07:21:25;101394.25;;;17.41
69785;BMP280;14177;51.520;6.764;2022-07-29T07:23:55;101395.69;;;17.46
69785;BMP280;14177;51.520;6.764;2022-07-29T07:26:23;101390.97;;;17.53
69785;BMP280;14177;51.520;6.764;2022-07-29T07:28:50;101390.63;;;17.60
69785;BMP280;14177;51.520;6.764;2022-07-29T07:31:17;101388.75;;;17.62
69785;BMP280;14177;51.520;6.764;2022-07-29T07:33:44;101391.16;;;17.67
69785;BMP280;14177;51.520;6.764;2022-07-29T07:36:11;101397.94;;;17.71
69785;BMP280;14177;51.520;6.764;2022-07-29T07:38:38;101407.31;;;17.76
69785;BMP280;14177;51.520;6.764;2022-07-29T07:41:05;101398.34;;;17.80
69785;BMP280;14177;51.520;6.764;2022-07-29T07:43:32;101392.94;;;17.83
69785;BMP280;14177;51.520;6.764;2022-07-29T07:45:59;101382.84;;;17.91
69785;BMP280;14177;51.520;6.764;2022-07-29T07:48:26;101381.56;;;18.00
69785;BMP280;14177;51.520;6.764;2022-07-29T07:50:54;101384.69;;;18.06
69785;BMP280;14177;51.520;6.764;2022-07-29T07:53:21;101383.38;;;18.15
69785;BMP280;14177;51.520;6.764;2022-07-29T07:55:49;101382.19;;;18.20
69785;BMP280;14177;51.520;6.764;2022-07-29T07:58:35;101384.66;;;18.23
69785;BMP280;14177;51.520;6.764;2022-07-29T08:01:03;101386.38;;;18.24
69785;BMP280;14177;51.520;6.764;2022-07-29T08:03:30;101389.81;;;18.26
69785;BMP280;14177;51.520;6.764;2022-07-29T08:05:57;101390.41;;;18.31
69785;BMP280;14177;51.520;6.764;2022-07-29T08:08:24;101392.94;;;18.33
69785;BMP280;14177;51.520;6.764;2022-07-29T08:10:51;101394.75;;;18.32
69785;BMP280;14177;51.520;6.764;2022-07-29T08:13:28;101394.63;;;18.33
69785;BMP280;14177;51.520;6.764;2022-07-29T08:15:58;101398.97;;;18.34
69785;BMP280;14177;51.520;6.764;2022-07-29T08:18:29;101399.91;;;18.33
69785;BMP280;14177;51.520;6.764;2022-07-29T08:20:57;101399.22;;;18.30
69785;BMP280;14177;51.520;6.764;2022-07-29T08:23:24;101395.66;;;18.31
69785;BMP280;14177;51.520;6.764;2022-07-29T08:26:13;101398.19;;;18.33
69785;BMP280;14177;51.520;6.764;2022-07-29T08:28:43;101401.59;;;18.34
69785;BMP280;14177;51.520;6.764;2022-07-29T08:31:13;101396.44;;;18.33
69785;BMP280;14177;51.520;6.764;2022-07-29T08:33:40;101394.63;;;18.33
69785;BMP280;14177;51.520;6.764;2022-07-29T08:36:08;101383.34;;;18.32
69785;BMP280;14177;51.520;6.764;2022-07-29T08:38:35;101386.09;;;18.30
69785;BMP280;14177;51.520;6.764;2022-07-29T08:41:02;101380.88;;;18.29
69785;BMP280;14177;51.520;6.764;2022-07-29T08:43:29;101386.16;;;18.29
69785;BMP280;14177;51.520;6.764;2022-07-29T08:45:56;101390.47;;;18.30
69785;BMP280;14177;51.520;6.764;2022-07-29T08:48:24;101387.94;;;18.28
69785;BMP280;14177;51.520;6.764;2022-07-29T08:50:56;101381.81;;;18.28
69785;BMP280;14177;51.520;6.764;2022-07-29T08:53:26;101385.97;;;18.32
69785;BMP280;14177;51.520;6.764;2022-07-29T08:55:56;101367.56;;;18.32
69785;BMP280;14177;51.520;6.764;2022-07-29T08:58:25;101373.59;;;18.33
69785;BMP280;14177;51.520;6.764;2022-07-29T09:00:56;101384.13;;;18.33
69785;BMP280;14177;51.520;6.764;2022-07-29T09:03:30;101389.38;;;18.33
69785;BMP280;14177;51.520;6.764;2022-07-29T09:05:59;101379.41;;;18.40
69785;BMP280;14177;51.520;6.764;2022-07-29T09:08:26;101372.78;;;18.48
69785;BMP280;14177;51.520;6.764;2022-07-29T09:10:54;101370.59;;;18.56
69785;BMP280;14177;51.520;6.764;2022-07-29T09:13:25;101366.53;;;18.66
69785;BMP280;14177;51.520;6.764;2022-07-29T09:15:53;101378.91;;;18.80
69785;BMP280;14177;51.520;6.764;2022-07-29T09:18:44;101373.84;;;18.92
69785;BMP280;14177;51.520;6.764;2022-07-29T09:21:16;101369.38;;;19.08
69785;BMP280;14177;51.520;6.764;2022-07-29T09:24:13;101375.03;;;19.18
69785;BMP280;14177;51.520;6.764;2022-07-29T09:26:43;101382.31;;;19.28
69785;BMP280;14177;51.520;6.764;2022-07-29T09:29:23;101378.22;;;19.38
69785;BMP280;14177;51.520;6.764;2022-07-29T09:31:54;101383.31;;;19.41
69785;BMP280;14177;51.520;6.764;2022-07-29T09:34:27;101382.25;;;19.44
69785;BMP280;14177;51.520;6.764;2022-07-29T09:36:55;101382.78;;;19.50
69785;BMP280;14177;51.520;6.764;2022-07-29T09:39:34;101378.84;;;19.57
69785;BMP280;14177;51.520;6.764;2022-07-29T09:42:05;101376.50;;;19.66
69785;BMP280;14177;51.520;6.764;2022-07-29T09:44:48;101362.78;;;19.75
69785;BMP280;14177;51.520;6.764;2022-07-29T09:47:18;101367.59;;;19.83
69785;BMP280;14177;51.520;6.764;2022-07-29T09:49:59;101355.09;;;19.86
69785;BMP280;14177;51.520;6.764;2022-07-29T09:52:29;101344.56;;;19.86
69785;BMP280;14177;51.520;6.764;2022-07-29T09:55:06;101345.97;;;19.92
69785;BMP280;14177;51.520;6.764;2022-07-29T09:57:33;101352.41;;;20.02
69785;BMP280;14177;51.520;6.764;2022-07-29T10:00:08;101356.38;;;20.09
69785;BMP280;14177;51.520;6.764;2022-07-29T10:02:40;101345.06;;;20.21
69785;BMP280;14177;51.520;6.764;2022-07-29T10:05:25;101358.34;;;20.33
69785;BMP280;14177;51.520;6.764;2022-07-29T10:08:02;101343.94;;;20.39
69785;BMP280;14177;51.520;6.764;2022-07-29T10:10:32;101343.00;;;20.40
69785;BMP280;14177;51.520;6.764;2022-07-29T10:15:40;101345.13;;;20.47
69785;BMP280;14177;51.520;6.764;2022-07-29T10:18:13;101341.75;;;20.45
69785;BMP280;14177;51.520;6.764;2022-07-29T10:20:41;101351.38;;;20.46
69785;BMP280;14177;51.520;6.764;2022-07-29T10:23:09;101344.19;;;20.48
69785;BMP280;14177;51.520;6.764;2022-07-29T10:25:36;101337.88;;;20.51
69785;BMP280;14177;51.520;6.764;2022-07-29T10:28:06;101331.00;;;20.48
69785;BMP280;14177;51.520;6.764;2022-07-29T10:30:33;101339.38;;;20.55
69785;BMP280;14177;51.520;6.764;2022-07-29T10:33:43;101338.91;;;20.62
69785;BMP280;14177;51.520;6.764;2022-07-29T10:36:40;101341.03;;;20.70
69785;BMP280;14177;51.520;6.764;2022-07-29T10:42:55;101350.53;;;20.86
69785;BMP280;14177;51.520;6.764;2022-07-29T10:45:27;101357.81;;;20.96
69785;BMP280;14177;51.520;6.764;2022-07-29T10:48:05;101355.88;;;21.12
69785;BMP280;14177;51.520;6.764;2022-07-29T10:53:45;101365.69;;;21.49
69785;BMP280;14177;51.520;6.764;2022-07-29T10:56:27;101376.97;;;21.65
69785;BMP280;14177;51.520;6.764;2022-07-29T11:01:50;101362.72;;;22.30
69785;BMP280;14177;51.520;6.764;2022-07-29T11:07:14;101364.84;;;23.22
69785;BMP280;14177;51.520;6.764;2022-07-29T11:09:43;101355.25;;;23.66
69785;BMP280;14177;51.520;6.764;2022-07-29T11:15:07;101359.09;;;24.29
69785;BMP280;14177;51.520;6.764;2022-07-29T11:23:27;101360.91;;;25.26
69785;BMP280;14177;51.520;6.764;2022-07-29T11:26:19;101358.34;;;25.56
69785;BMP280;14177;51.520;6.764;2022-07-29T11:31:46;101356.00;;;25.94
69785;BMP280;14177;51.520;6.764;2022-07-29T11:34:22;101357.59;;;26.05
69785;BMP280;14177;51.520;6.764;2022-07-29T11:40:24;101371.09;;;26.13
69785;BMP280;14177;51.520;6.764;2022-07-29T11:45:19;101356.00;;;25.94
69785;BMP280;14177;51.520;6.764;2022-07-29T11:48:15;101360.78;;;25.79
69785;BMP280;14177;51.520;6.764;2022-07-29T11:50:58;101369.09;;;25.65
69785;BMP280;14177;51.520;6.764;2022-07-29T11:53:25;101364.28;;;25.59
69785;BMP280;14177;51.520;6.764;2022-07-29T11:55:59;101363.50;;;25.48
69785;BMP280;14177;51.520;6.764;2022-07-29T11:58:29;101359.03;;;25.37
69785;BMP280;14177;51.520;6.764;2022-07-29T12:00:57;101361.00;;;25.35
69785;BMP280;14177;51.520;6.764;2022-07-29T12:03:31;101357.16;;;25.28
69785;BMP280;14177;51.520;6.764;2022-07-29T12:06:14;101362.00;;;25.23
69785;BMP280;14177;51.520;6.764;2022-07-29T12:08:44;101355.13;;;25.21
69785;BMP280;14177;51.520;6.764;2022-07-29T12:11:20;101371.34;;;25.07
69785;BMP280;14177;51.520;6.764;2022-07-29T12:13:51;101361.19;;;25.01
69785;BMP280;14177;51.520;6.764;2022-07-29T12:16:20;101354.84;;;24.92
69785;BMP280;14177;51.520;6.764;2022-07-29T12:19:00;101357.13;;;24.86
69785;BMP280;14177;51.520;6.764;2022-07-29T12:24:25;101357.63;;;24.80
69785;BMP280;14177;51.520;6.764;2022-07-29T12:26:56;101356.69;;;24.70
69785;BMP280;14177;51.520;6.764;2022-07-29T12:29:25;101356.22;;;24.65
69785;BMP280;14177;51.520;6.764;2022-07-29T12:32:03;101351.75;;;24.55
69785;BMP280;14177;51.520;6.764;2022-07-29T12:34:32;101355.81;;;24.48
69785;BMP280;14177;51.520;6.764;2022-07-29T12:36:59;101359.69;;;24.44
69785;BMP280;14177;51.520;6.764;2022-07-29T12:39:27;101360.91;;;24.40
69785;BMP280;14177;51.520;6.764;2022-07-29T12:41:55;101364.28;;;24.31
69785;BMP280;14177;51.520;6.764;2022-07-29T12:44:50;101372.25;;;24.20
69785;BMP280;14177;51.520;6.764;2022-07-29T12:47:19;101375.97;;;24.17
69785;BMP280;14177;51.520;6.764;2022-07-29T12:49:47;101367.19;;;24.17
69785;BMP280;14177;51.520;6.764;2022-07-29T12:52:31;101363.66;;;24.16
69785;BMP280;14177;51.520;6.764;2022-07-29T12:54:58;101355.00;;;24.25
69785;BMP280;14177;51.520;6.764;2022-07-29T12:57:26;101360.28;;;24.25
69785;BMP280;14177;51.520;6.764;2022-07-29T13:00:09;101363.69;;;24.27
69785;BMP280;14177;51.520;6.764;2022-07-29T13:02:39;101361.50;;;24.32
69785;BMP280;14177;51.520;6.764;2022-07-29T13:05:08;101364.41;;;24.40
69785;BMP280;14177;51.520;6.764;2022-07-29T13:07:36;101356.81;;;24.36
69785;BMP280;14177;51.520;6.764;2022-07-29T13:10:23;101356.69;;;24.37
69785;BMP280;14177;51.520;6.764;2022-07-29T13:13:09;101356.81;;;24.36
69785;BMP280;14177;51.520;6.764;2022-07-29T13:15:43;101359.69;;;24.44
69785;BMP280;14177;51.520;6.764;2022-07-29T13:18:29;101363.47;;;24.52
69785;BMP280;14177;51.520;6.764;2022-07-29T13:20:57;101360.56;;;24.66
69785;BMP280;14177;51.520;6.764;2022-07-29T13:23:24;101356.69;;;24.70
69785;BMP280;14177;51.520;6.764;2022-07-29T13:25:51;101360.91;;;24.72
69785;BMP280;14177;51.520;6.764;2022-07-29T13:28:19;101357.41;;;24.72
69785;BMP280;14177;51.520;6.764;2022-07-29T13:30:48;101351.38;;;24.70
69785;BMP280;14177;51.520;6.764;2022-07-29T13:33:15;101365.16;;;24.64
69785;BMP280;14177;51.520;6.764;2022-07-29T13:35:42;101355.34;;;24.65
69785;BMP280;14177;51.520;6.764;2022-07-29T13:38:09;101357.19;;;24.64
69785;BMP280;14177;51.520;6.764;2022-07-29T13:40:36;101355.00;;;24.69
69785;BMP280;14177;51.520;6.764;2022-07-29T13:43:03;101356.31;;;24.74
69785;BMP280;14177;51.520;6.764;2022-07-29T13:45:30;101350.91;;;24.76
69785;BMP280;14177;51.520;6.764;2022-07-29T13:47:57;101356.16;;;24.87
69785;BMP280;14177;51.520;6.764;2022-07-29T13:50:24;101353.72;;;24.95
69785;BMP280;14177;51.520;6.764;2022-07-29T13:52:51;101350.69;;;25.10
69785;BMP280;14177;51.520;6.764;2022-07-29T13:55:18;101357.03;;;25.30
69785;BMP280;14177;51.520;6.764;2022-07-29T13:57:46;101355.22;;;25.51
69785;BMP280;14177;51.520;6.764;2022-07-29T14:00:14;101354.13;;;25.85
69785;BMP280;14177;51.520;6.764;2022-07-29T14:02:42;101347.66;;;26.07
69785;BMP280;14177;51.520;6.764;2022-07-29T14:05:16;101348.38;;;26.09
69785;BMP280;14177;51.520;6.764;2022-07-29T14:07:43;101342.28;;;25.98
69785;BMP280;14177;51.520;6.764;2022-07-29T14:10:10;101344.19;;;25.87
69785;BMP280;14177;51.520;6.764;2022-07-29T14:12:37;101337.94;;;25.97
69785;BMP280;14177;51.520;6.764;2022-07-29T14:15:05;101338.06;;;26.25
69785;BMP280;14177;51.520;6.764;2022-07-29T14:17:32;101336.94;;;26.48
69785;BMP280;14177;51.520;6.764;2022-07-29T14:19:59;101340.47;;;26.58
69785;BMP280;14177;51.520;6.764;2022-07-29T14:22:26;101341.94;;;26.81
69785;BMP280;14177;51.520;6.764;2022-07-29T14:24:52;101335.00;;;27.09
69785;BMP280;14177;51.520;6.764;2022-07-29T14:27:19;101335.84;;;27.28
69785;BMP280;14177;51.520;6.764;2022-07-29T14:30:05;101334.13;;;27.55
69785;BMP280;14177;51.520;6.764;2022-07-29T14:32:32;101329.34;;;27.78
69785;BMP280;14177;51.520;6.764;2022-07-29T14:34:59;101320.59;;;27.95
69785;BMP280;14177;51.520;6.764;2022-07-29T14:37:26;101319.97;;;28.10
69785;BMP280;14177;51.520;6.764;2022-07-29T14:39:53;101318.50;;;28.25
69785;BMP280;14177;51.520;6.764;2022-07-29T14:42:21;101320.44;;;28.42
69785;BMP280;14177;51.520;6.764;2022-07-29T14:44:47;101316.72;;;28.52
69785;BMP280;14177;51.520;6.764;2022-07-29T14:47:16;101322.91;;;28.53
69785;BMP280;14177;51.520;6.764;2022-07-29T14:49:42;101314.16;;;28.60
69785;BMP280;14177;51.520;6.764;2022-07-29T14:52:09;101321.44;;;28.68
69785;BMP280;14177;51.520;6.764;2022-07-29T14:54:36;101316.31;;;28.74
69785;BMP280;14177;51.520;6.764;2022-07-29T14:57:03;101319.78;;;28.84
69785;BMP280;14177;51.520;6.764;2022-07-29T14:59:30;101319.03;;;28.92